Airfield :
LOGIN :

Register | Disclaimer

   EN    FR    IT 

 










Legend :    VFR   Marginal VFR   IFR   Intensive IFR   Very Intensive IFR
Visi :
Ceiling :
>= 8 km
>= 3000ft
5 to 8 km
1000 to 3000 ft
1500m to 5 km
500 to 1000 ft
800 to 1500m
200 to 500 ft
< 800m
< 200 ft
Symbols :   Thunderstorms  Fog  Heavy snow  Heavy precipitations  Wind > 20 kt
SIGMETs :     Misc.  Thunderstorms  Icing  Turbulence  Mountain Waves  Volcanic Ashes







- Airport Elevation : 55 ft
- Download approach charts


EGNO - Warton Preston

CURRENT METAR :
  • 301420Z 22004KT 180V260 9999 VCSH SCT018 BKN032 14/12 Q1012

EXPIRED METARs :
  • 301350Z 24008KT 9999 VCSH FEW010 SCT023 14/11 Q1013
  • 301320Z 22009KT 9999 SCT021 BKN029 14/12 Q1013
  • 301250Z 25010KT 9999 SHRAGS SCT021 BKN030 13/11 Q1013
  • 301220Z 23006KT 9999 -RA FEW017 BKN025 14/13 Q1013
  • 301150Z 20009KT 9999 -RA FEW017 BKN030 14/13 Q1013
  • 301120Z 19011KT 8000 -RADZ FEW011 BKN023 14/12 Q1013

TAF AMD TAF EGNO
Valid from the 30 at 12:00 until the 30 at 18:00 UTC


301237Z 3012/3018 20009KT 9999 BKN035
PROB30
TEMPO 3012/3018 7000 SHRA
ATIS : +44 1772 856 060
No reported NOTAMs for that airfield.



MET'MAP, your aeronautical weather chart ! - Copyright ORBIFLY December 2007 - Disclaimer

ORBIFLY MET'MAP TEAM :

Programming & Development : Alexandra Zaïnal
Concept & Development : Baudouin d'Aumeries
Co-Development & Prog : Marc-Olivier Méhu
Technical & hardware support : Manuel Goepfert

Contact : metmap@orbifly.com




SOURCES & CREDITS :

   NOAA